Disclaimer

Please do not use the information listed here in-flight or in-navigation, as they are not provided to us by the airports but are provided by volunteers, so they might be outdated.

Search


Regions


Airport information page

Radio informations:
Tower (TWR) - 125.5 MHz
Ground (GND) - 121.8 MHz
Automatic Terminal Information Service (ATIS) - 124.8 MHz
RADAR - 120.9 MHz

Airport informations:
Latitude: 46° 25' 36.36" N
Longitude: 030° 40' 35.27" E
Elevation: 172 feet - 52 meters
Operating hours: 24 hour operations
Operating agency: Military-civil joint use airport
Timezone: UTC+2(+3DT) - Last Sunday in March to last Sunday in October
Fuel: Jet A1, without icing nhibitor.

Runway information:
07/25 - 1815 x 197 feet< - >553 x 60 meters
16/34 - 9183 x 184 feet< - >2799 x 56 meters
18/36 - 2950 x 190 feet< - >899 x 58 meters

Recent METARs:
UKOO 211900Z 04007MPS 9999 OVC011 01/M00 Q1022 R34/090060 NOSIG
UKOO 211930Z 04006MPS 360V070 9999 OVC011 01/M01 Q1022 R34/090060 NOSIG
UKOO 212000Z 04007MPS 9999 OVC012 00/M01 Q1023 R34/090060 NOSIG

Airport on the map: